Diamond Lake, Oregon
Current Conditions -  °F | °C
As of 6:07 AM on Wednesday 26 Nov 2014 (Local Time) from KLMT Reporting Station
Moderate Fog Moderate Fog  
Wind Chill: 26°   Ceiling: 100
Heat Index: 26°   Visibility: 0.25mi
Dew Point: 23°   Wind: 0mph
Humidity: 88%   Direction: NA
Pressure: 30.36"   Gusts: NA
Location:  43.0567°N, 121.852°W
Report Text: KLMT 261407Z AUTO 00000KT 1/4SM R32/1400V2200FT FZFG VV001 M03/M05 A3036 RMK AO2 T10331050
Loading
Personal Weather Stations






























Interactive Weather Map New forecast layout! Learn more

10-Day Weather Forecast

Advertisements
Track Severe Weather on mobile